Time;durP1;ratioP1;P1;durP2;ratioP2;P2;SDS_P1;SDS_P2;PMS_P1;PMS_P2;Temp;Humidity;BMP_temperature;BMP_pressure;BME280_temperature;BME280_humidity;BME280_pressure;Samples;Min_cycle;Max_cycle;Signal;HPM_P1;HPM_P2
2024/01/24 00:02:18;;;;;;;6.05;1.30;;;;;;;11.47;100.00;101294.91;4989598;28;20052;-91
2024/01/24 00:04:43;;;;;;;4.85;1.25;;;;;;;11.47;100.00;101288.84;4975641;28;20463;-89
2024/01/24 00:07:09;;;;;;;3.05;1.17;;;;;;;11.50;100.00;101273.13;4979273;28;20056;-92
2024/01/24 00:09:34;;;;;;;3.92;1.20;;;;;;;11.49;100.00;101266.22;4989816;28;20488;-92
2024/01/24 00:11:59;;;;;;;4.45;1.10;;;;;;;11.55;100.00;101286.94;4972314;28;20062;-90
2024/01/24 00:14:25;;;;;;;4.35;1.10;;;;;;;11.61;100.00;101286.81;4988933;28;20504;-92
2024/01/24 00:16:51;;;;;;;3.25;1.00;;;;;;;11.61;100.00;101302.44;4989136;28;20057;-92
2024/01/24 00:19:16;;;;;;;5.00;1.42;;;;;;;11.62;100.00;101309.34;4989752;28;20480;-92
2024/01/24 00:21:42;;;;;;;2.85;1.00;;;;;;;11.64;100.00;101317.97;4799996;28;21851;-92
2024/01/24 00:24:08;;;;;;;3.05;1.00;;;;;;;11.65;100.00;101319.69;4631081;28;21365;-90
2024/01/24 00:26:33;;;;;;;3.40;1.15;;;;;;;11.69;100.00;101299.66;4848159;28;20205;-92
2024/01/24 00:28:58;;;;;;;3.42;1.00;;;;;;;11.72;100.00;101293.50;4982853;28;20040;-92
2024/01/24 00:31:24;;;;;;;3.35;1.20;;;;;;;11.74;100.00;101283.91;4975181;28;20436;-91
2024/01/24 00:33:52;;;;;;;4.65;0.90;;;;;;;11.83;100.00;101250.66;4976012;28;20026;-91
2024/01/24 00:36:17;;;;;;;2.53;0.93;;;;;;;11.83;100.00;101274.13;4964911;28;20026;-92
2024/01/24 00:38:42;;;;;;;1.20;0.80;;;;;;;11.83;100.00;101252.38;4969427;28;20026;-90
2024/01/24 00:41:08;;;;;;;2.78;0.90;;;;;;;11.81;100.00;101270.69;4963624;28;20165;-92
2024/01/24 00:43:33;;;;;;;1.92;0.80;;;;;;;11.84;100.00;101288.00;4975040;28;20018;-92
2024/01/24 00:45:58;;;;;;;2.42;0.85;;;;;;;11.95;100.00;101291.22;4974075;28;20031;-91
2024/01/24 00:48:24;;;;;;;2.78;0.80;;;;;;;11.87;100.00;101266.22;4959594;28;20579;-89
2024/01/24 00:50:49;;;;;;;1.88;0.77;;;;;;;11.89;100.00;101259.19;4973576;28;20033;-90
2024/01/24 00:53:19;;;;;;;2.47;0.82;;;;;;;11.88;100.00;101263.56;4973242;28;20053;-90
2024/01/24 00:55:47;;;;;;;3.42;0.77;;;;;;;11.92;100.00;101265.22;4974314;28;20026;-92
2024/01/24 00:58:12;;;;;;;1.67;0.70;;;;;;;11.98;100.00;101317.22;4977680;28;20037;-91
2024/01/24 01:00:37;;;;;;;1.80;0.88;;;;;;;11.99;100.00;101271.16;4976132;28;20031;-93
2024/01/24 01:03:03;;;;;;;3.33;0.85;;;;;;;12.03;100.00;101266.72;4975365;28;20106;-92
2024/01/24 01:05:28;;;;;;;4.47;0.90;;;;;;;11.99;100.00;101266.78;4958896;28;20121;-90
2024/01/24 01:07:54;;;;;;;2.53;0.70;;;;;;;12.03;100.00;101256.28;4969770;28;20039;-91
2024/01/24 01:10:20;;;;;;;1.85;0.80;;;;;;;11.97;100.00;101258.13;4979665;28;20014;-91
2024/01/24 01:12:45;;;;;;;2.03;0.90;;;;;;;11.92;100.00;101254.78;4978529;28;20041;-92
2024/01/24 01:15:10;;;;;;;1.33;0.80;;;;;;;11.84;100.00;101273.22;4962291;28;20023;-90
2024/01/24 01:17:36;;;;;;;2.38;0.80;;;;;;;11.80;100.00;101270.69;4971390;28;20026;-90
2024/01/24 01:20:02;;;;;;;1.85;0.70;;;;;;;11.72;100.00;101242.22;4969991;28;20027;-92
2024/01/24 01:22:27;;;;;;;2.28;1.00;;;;;;;11.66;100.00;101243.22;4962966;28;20027;-89
2024/01/24 01:24:53;;;;;;;1.08;0.70;;;;;;;11.63;100.00;101242.44;4975609;28;20026;-90
2024/01/24 01:27:18;;;;;;;2.65;0.80;;;;;;;11.65;100.00;101244.13;4998619;28;20081;-90
2024/01/24 01:29:43;;;;;;;2.22;0.90;;;;;;;11.61;100.00;101258.13;4986989;28;20076;-90
2024/01/24 01:32:09;;;;;;;2.03;0.80;;;;;;;11.62;100.00;101249.41;4985148;28;20022;-91
2024/01/24 01:34:34;;;;;;;1.55;0.70;;;;;;;11.61;100.00;101239.03;4984758;28;20027;-91
2024/01/24 01:37:00;;;;;;;4.55;1.10;;;;;;;11.54;100.00;101246.97;5000134;28;20032;-91
2024/01/24 01:39:25;;;;;;;2.08;0.80;;;;;;;11.53;100.00;101240.03;4998740;28;20131;-92
2024/01/24 01:41:51;;;;;;;1.38;0.80;;;;;;;11.51;100.00;101259.22;4994742;28;20034;-92
2024/01/24 01:44:17;;;;;;;1.20;0.70;;;;;;;11.51;100.00;101267.91;4999323;28;20496;-91
2024/01/24 01:46:45;;;;;;;1.88;0.88;;;;;;;11.55;100.00;101260.88;4997609;28;20030;-91
2024/01/24 01:49:11;;;;;;;2.72;0.90;;;;;;;11.53;100.00;101252.22;4978190;28;20034;-90
2024/01/24 01:51:37;;;;;;;1.25;0.70;;;;;;;11.54;100.00;101280.00;4999453;28;20061;-93
2024/01/24 01:54:03;;;;;;;1.80;0.70;;;;;;;11.45;100.00;101249.81;4985410;28;20486;-89
2024/01/24 01:56:29;;;;;;;2.15;0.85;;;;;;;11.47;100.00;101260.19;4996944;28;20023;-91
2024/01/24 01:58:55;;;;;;;1.92;0.85;;;;;;;11.50;100.00;101273.13;4997277;28;20028;-90
2024/01/24 02:01:21;;;;;;;1.23;0.80;;;;;;;11.44;100.00;101268.09;4982856;28;20022;-90
2024/01/24 02:03:47;;;;;;;3.28;0.70;;;;;;;11.37;100.00;101242.16;4994623;28;20509;-91
2024/01/24 02:06:12;;;;;;;1.27;0.80;;;;;;;11.34;100.00;101265.66;4995830;28;20018;-91
2024/01/24 02:08:39;;;;;;;1.35;0.70;;;;;;;11.33;100.00;101248.31;5000257;28;20360;-90
2024/01/24 02:11:05;;;;;;;1.40;0.70;;;;;;;11.29;100.00;101238.84;4985479;28;20498;-90
2024/01/24 02:13:31;;;;;;;1.20;0.63;;;;;;;11.24;100.00;101257.19;4993387;28;20026;-90
2024/01/24 02:16:03;;;;;;;1.58;0.90;;;;;;;11.24;100.00;101246.78;4981001;28;20404;-92
2024/01/24 02:18:28;;;;;;;;;;;;;;;11.23;100.00;101234.66;4978789;28;20133;-88
2024/01/24 02:20:54;;;;;;;2.28;0.73;;;;;;;11.15;100.00;101244.41;4990464;28;20008;-89
2024/01/24 02:23:22;;;;;;;0.60;0.60;;;;;;;11.12;100.00;101240.97;4994694;28;20018;-87
2024/01/24 02:25:49;;;;;;;0.73;0.70;;;;;;;11.09;100.00;101239.31;4976255;28;20076;-89
2024/01/24 02:28:14;;;;;;;1.58;0.60;;;;;;;11.11;100.00;101239.25;4992388;28;20061;-89
2024/01/24 02:30:40;;;;;;;1.95;0.68;;;;;;;11.02;100.00;101235.97;4991229;28;20062;-90
2024/01/24 02:33:05;;;;;;;1.95;0.80;;;;;;;10.99;100.00;101241.25;4997978;28;20062;-89
2024/01/24 02:35:30;;;;;;;0.75;0.60;;;;;;;10.99;100.00;101248.22;4990436;28;20096;-90
2024/01/24 02:37:56;;;;;;;1.25;0.55;;;;;;;11.02;100.00;101237.72;4988343;28;20467;-89
2024/01/24 02:40:21;;;;;;;1.10;0.50;;;;;;;10.96;100.00;101233.50;4991462;28;20037;-90
2024/01/24 02:42:47;;;;;;;1.00;0.50;;;;;;;10.92;100.00;101247.50;4992895;28;20026;-90
2024/01/24 02:45:12;;;;;;;1.30;0.50;;;;;;;10.93;100.00;101262.22;4990347;28;20023;-91
2024/01/24 02:47:37;;;;;;;1.23;0.50;;;;;;;10.92;100.00;101261.34;4994327;28;20022;-91
2024/01/24 02:50:04;;;;;;;0.88;0.45;;;;;;;10.91;100.00;101259.63;4994577;28;20383;-90
2024/01/24 02:52:29;;;;;;;1.63;0.52;;;;;;;10.89;100.00;101256.19;4992781;28;20522;-90
2024/01/24 02:54:55;;;;;;;0.52;0.50;;;;;;;10.90;100.00;101249.25;4991179;28;20029;-89
2024/01/24 02:57:20;;;;;;;0.50;0.50;;;;;;;10.90;100.00;101263.13;4993355;28;20025;-90
2024/01/24 02:59:46;;;;;;;1.38;0.47;;;;;;;10.89;100.00;101250.16;4990809;28;20030;-91
2024/01/24 03:02:11;;;;;;;0.90;0.52;;;;;;;10.89;100.00;101229.31;4976030;28;20116;-91
2024/01/24 03:04:37;;;;;;;0.50;0.40;;;;;;;10.87;100.00;101228.50;4996428;28;20174;-90
2024/01/24 03:07:03;;;;;;;0.40;0.40;;;;;;;10.88;100.00;101222.41;5001206;28;20017;-90
2024/01/24 03:09:28;;;;;;;0.52;0.40;;;;;;;10.88;100.00;101235.41;4980790;28;20125;-89
2024/01/24 03:11:53;;;;;;;0.50;0.50;;;;;;;10.89;100.00;101230.16;4990979;28;20026;-89
2024/01/24 03:14:19;;;;;;;1.27;0.50;;;;;;;10.88;100.00;101245.81;4978906;28;20056;-90
2024/01/24 03:16:44;;;;;;;1.77;0.77;;;;;;;10.89;100.00;101237.13;4994856;28;20058;-90
2024/01/24 03:19:10;;;;;;;1.48;0.80;;;;;;;10.88;100.00;101231.06;4991822;28;20030;-90
2024/01/24 03:21:35;;;;;;;0.90;0.80;;;;;;;10.90;100.00;101237.09;4992555;28;20048;-90
2024/01/24 03:24:00;;;;;;;1.33;0.90;;;;;;;10.91;100.00;101248.38;4992243;28;20120;-89
2024/01/24 03:26:26;;;;;;;1.30;1.00;;;;;;;10.90;100.00;101257.06;4990746;28;20066;-90
2024/01/24 03:28:52;;;;;;;2.83;1.20;;;;;;;10.97;100.00;101273.41;4993582;28;20030;-89
2024/01/24 03:31:17;;;;;;;1.45;1.13;;;;;;;10.97;100.00;101271.66;4980454;28;20704;-90
2024/01/24 03:33:42;;;;;;;2.35;1.20;;;;;;;10.96;100.00;101292.53;4995920;28;20581;-89
2024/01/24 03:36:08;;;;;;;1.52;1.15;;;;;;;11.01;100.00;101288.94;5005710;28;20040;-91
2024/01/24 03:38:34;;;;;;;3.92;1.30;;;;;;;11.01;100.00;101321.94;4996734;28;20027;-90
2024/01/24 03:40:59;;;;;;;1.95;1.10;;;;;;;11.02;100.00;101293.25;4996723;28;20424;-90
2024/01/24 03:43:25;;;;;;;3.75;1.30;;;;;;;11.06;100.00;101315.75;4984506;28;20110;-90
2024/01/24 03:45:50;;;;;;;2.08;1.30;;;;;;;11.05;100.00;101302.75;5002419;28;20093;-91
2024/01/24 03:48:15;;;;;;;1.30;0.93;;;;;;;11.06;100.00;101309.66;4998152;28;20022;-89
2024/01/24 03:50:41;;;;;;;2.10;1.05;;;;;;;11.04;100.00;101321.84;4997927;28;20093;-91
2024/01/24 03:53:06;;;;;;;4.35;1.20;;;;;;;11.03;100.00;101326.22;4998960;28;20032;-90
2024/01/24 03:55:32;;;;;;;1.30;1.13;;;;;;;11.07;100.00;101314.84;5000695;28;20026;-92
2024/01/24 03:57:57;;;;;;;3.90;1.10;;;;;;;11.08;100.00;101318.31;4998165;28;20488;-91
2024/01/24 04:00:23;;;;;;;5.82;1.48;;;;;;;11.08;100.00;101329.59;4997171;28;20412;-91
2024/01/24 04:02:49;;;;;;;4.57;1.00;;;;;;;11.09;100.00;101340.84;4984496;28;20022;-90
2024/01/24 04:05:16;;;;;;;4.40;1.02;;;;;;;11.10;100.00;101339.13;4997068;28;20070;-91
2024/01/24 04:07:41;;;;;;;4.53;1.08;;;;;;;11.12;100.00;101325.19;4982130;28;20026;-90
2024/01/24 04:10:07;;;;;;;3.88;0.88;;;;;;;11.16;100.00;101316.41;4994090;28;20038;-91
2024/01/24 04:12:33;;;;;;;7.40;1.33;;;;;;;11.14;100.00;101306.91;4999287;28;20402;-90
2024/01/24 04:14:58;;;;;;;4.50;1.10;;;;;;;11.17;100.00;101275.59;4997190;28;20037;-91
2024/01/24 04:17:23;;;;;;;7.63;1.20;;;;;;;11.13;100.00;101305.19;4986498;28;20022;-91
2024/01/24 04:19:49;;;;;;;7.45;1.10;;;;;;;11.14;100.00;101314.72;4986028;28;20076;-89
2024/01/24 04:22:15;;;;;;;4.75;1.02;;;;;;;11.11;100.00;101312.16;4988211;28;20029;-93
2024/01/24 04:24:41;;;;;;;7.45;1.17;;;;;;;11.17;100.00;101327.69;4974374;28;20065;-91
2024/01/24 04:27:07;;;;;;;6.90;1.30;;;;;;;11.14;100.00;101341.63;4975155;28;20070;-91
2024/01/24 04:29:32;;;;;;;4.82;1.23;;;;;;;11.15;100.00;101345.06;4966009;28;20026;-90
2024/01/24 04:31:57;;;;;;;7.68;1.30;;;;;;;11.14;100.00;101370.28;4973413;28;20038;-90
2024/01/24 04:34:23;;;;;;;7.78;1.23;;;;;;;11.09;100.00;101390.31;4971304;28;20023;-90
2024/01/24 04:36:48;;;;;;;7.55;1.70;;;;;;;11.06;100.00;101370.44;4958347;28;20027;-90
2024/01/24 04:39:14;;;;;;;9.15;1.48;;;;;;;11.07;100.00;101374.75;4971425;28;20030;-90
2024/01/24 04:41:39;;;;;;;8.23;1.70;;;;;;;11.06;100.00;101372.16;4960296;28;20030;-91
2024/01/24 04:44:04;;;;;;;8.38;1.50;;;;;;;11.04;100.00;101364.38;4968229;28;20041;-92
2024/01/24 04:46:30;;;;;;;10.50;1.80;;;;;;;11.00;99.08;101383.56;4970538;28;20031;-91
2024/01/24 04:48:55;;;;;;;10.73;2.00;;;;;;;11.03;98.44;101393.91;4953398;28;20034;-91
2024/01/24 04:51:24;;;;;;;8.00;1.88;;;;;;;11.02;98.98;101376.56;4963377;28;20069;-89
2024/01/24 04:53:50;;;;;;;11.88;2.00;;;;;;;11.02;97.67;101378.31;4978709;28;20034;-92
2024/01/24 04:56:16;;;;;;;11.10;2.13;;;;;;;10.97;97.74;101391.41;4970037;28;20478;-91
2024/01/24 04:58:41;;;;;;;13.68;1.70;;;;;;;10.95;97.32;101395.78;4972577;28;20454;-90
2024/01/24 05:01:06;;;;;;;10.00;1.80;;;;;;;10.92;97.44;101372.44;4973676;28;20496;-90
2024/01/24 05:03:32;;;;;;;14.10;1.75;;;;;;;10.90;96.71;101361.19;4959023;28;20492;-90
2024/01/24 05:05:57;;;;;;;12.23;2.00;;;;;;;10.90;96.41;101408.91;4963144;28;20053;-92
2024/01/24 05:08:23;;;;;;;11.00;2.00;;;;;;;10.89;95.82;101401.13;4955661;28;20381;-91
2024/01/24 05:10:48;;;;;;;10.30;1.73;;;;;;;10.84;96.81;101393.41;4976117;28;20046;-90
2024/01/24 05:13:14;;;;;;;11.48;1.83;;;;;;;10.84;96.26;101414.22;4973135;28;20034;-91
2024/01/24 05:15:39;;;;;;;12.07;2.00;;;;;;;10.80;96.44;101419.50;4972456;28;20022;-90
2024/01/24 05:18:04;;;;;;;12.15;2.30;;;;;;;10.78;96.22;101415.16;4972547;28;20019;-90
2024/01/24 05:20:30;;;;;;;13.57;2.40;;;;;;;10.76;96.79;101419.53;4978104;28;20508;-90
2024/01/24 05:22:55;;;;;;;12.27;2.25;;;;;;;10.80;96.45;101437.72;4962310;28;20109;-92
2024/01/24 05:25:21;;;;;;;16.58;2.70;;;;;;;10.77;96.36;101465.50;4964496;28;20014;-90
2024/01/24 05:27:47;;;;;;;15.60;2.90;;;;;;;10.76;96.75;101435.16;4974778;28;20057;-91
2024/01/24 05:30:13;;;;;;;11.38;2.10;;;;;;;10.75;96.80;101454.28;4980193;28;20049;-91
2024/01/24 05:32:38;;;;;;;15.38;2.67;;;;;;;10.75;97.51;101451.69;4991033;28;20073;-92
2024/01/24 05:35:04;;;;;;;14.32;2.47;;;;;;;10.75;96.15;101438.66;4990370;28;20030;-91
2024/01/24 05:37:29;;;;;;;14.32;2.25;;;;;;;10.74;95.44;101441.28;4990410;28;20033;-91
2024/01/24 05:39:54;;;;;;;14.80;2.70;;;;;;;10.71;94.97;101455.22;4990993;28;20105;-92
2024/01/24 05:42:20;;;;;;;18.77;2.90;;;;;;;10.73;93.73;101443.03;4990737;28;20109;-91
2024/01/24 05:44:45;;;;;;;10.25;1.90;;;;;;;10.71;94.67;101447.41;4981251;28;20018;-91
2024/01/24 05:47:10;;;;;;;10.93;2.30;;;;;;;10.70;93.97;101430.06;4981786;28;20034;-91
2024/01/24 05:49:36;;;;;;;15.00;2.45;;;;;;;10.71;94.74;101429.19;4981058;28;20177;-93
2024/01/24 05:52:04;;;;;;;12.98;2.67;;;;;;;10.69;93.57;101448.28;5013665;28;20057;-90
2024/01/24 05:54:29;;;;;;;15.95;2.50;;;;;;;10.69;94.36;101446.56;4982271;28;20030;-91
2024/01/24 05:56:57;;;;;;;14.27;2.55;;;;;;;10.72;94.13;101430.03;4984092;28;20029;-89
2024/01/24 05:59:22;;;;;;;12.18;2.60;;;;;;;10.67;93.69;101443.13;4984837;28;20026;-91
2024/01/24 06:01:47;;;;;;;19.13;3.38;;;;;;;10.70;93.55;101450.88;4990098;28;20113;-91
2024/01/24 06:04:13;;;;;;;16.23;2.97;;;;;;;10.71;93.22;101455.22;4990447;28;20065;-92
2024/01/24 06:06:39;;;;;;;16.92;2.95;;;;;;;10.72;93.09;101462.13;4990106;28;20136;-89
2024/01/24 06:09:05;;;;;;;16.35;2.50;;;;;;;10.68;92.92;101486.47;4975987;28;20034;-91
2024/01/24 06:11:30;;;;;;;15.82;3.00;;;;;;;10.65;92.93;101489.13;4989613;28;20026;-92
2024/01/24 06:13:55;;;;;;;17.95;3.05;;;;;;;10.68;92.39;101527.25;4989635;28;20030;-92
2024/01/24 06:16:21;;;;;;;17.77;3.13;;;;;;;10.69;92.47;101501.22;4977953;28;20106;-92
2024/01/24 06:18:47;;;;;;;18.77;3.33;;;;;;;10.68;91.82;101498.63;4990259;28;20026;-92
2024/01/24 06:21:13;;;;;;;16.02;2.95;;;;;;;10.68;91.94;101532.44;4989760;28;20155;-93
2024/01/24 06:23:38;;;;;;;20.02;3.00;;;;;;;10.66;91.09;101534.25;4990492;28;20069;-89
2024/01/24 06:26:04;;;;;;;14.50;2.83;;;;;;;10.63;90.71;101545.53;4955420;28;1168404;-92
2024/01/24 06:28:29;;;;;;;16.35;2.78;;;;;;;10.65;90.84;101543.78;4988791;28;20471;-91
2024/01/24 06:30:54;;;;;;;13.13;2.53;;;;;;;10.60;90.70;101558.59;5002600;28;20029;-91
2024/01/24 06:33:21;;;;;;;18.23;3.28;;;;;;;10.69;87.34;101581.88;4998576;28;20105;-91
2024/01/24 06:35:47;;;;;;;16.40;3.05;;;;;;;10.58;87.93;101583.78;4989704;28;20026;-92
2024/01/24 06:38:13;;;;;;;16.10;2.90;;;;;;;10.62;87.14;101611.47;4995426;28;20100;-93
2024/01/24 06:40:39;;;;;;;15.18;3.30;;;;;;;10.54;87.09;101608.13;5007668;28;20026;-92
2024/01/24 06:43:04;;;;;;;19.88;3.80;;;;;;;10.52;85.97;101604.69;5003800;28;20033;-90
2024/01/24 06:45:30;;;;;;;14.18;2.78;;;;;;;10.46;86.90;101601.25;4990643;28;20156;-91
2024/01/24 06:47:55;;;;;;;13.90;2.53;;;;;;;10.45;87.77;101589.13;5002852;28;20037;-91
2024/01/24 06:50:20;;;;;;;21.60;2.63;;;;;;;10.40;86.04;101618.69;5005252;28;20105;-92
2024/01/24 06:52:46;;;;;;;19.83;3.30;;;;;;;10.37;86.79;101585.75;4987194;28;20573;-92
2024/01/24 06:55:13;;;;;;;16.85;2.53;;;;;;;10.43;87.11;101631.66;5005097;28;20040;-92
2024/01/24 06:57:39;;;;;;;19.48;2.92;;;;;;;10.35;87.32;101641.25;4990252;28;20169;-91
2024/01/24 07:00:05;;;;;;;23.35;3.58;;;;;;;10.39;86.09;101650.78;4988234;28;20109;-91
2024/01/24 07:02:30;;;;;;;19.42;3.20;;;;;;;10.36;85.75;101651.66;4993530;28;20022;-92
2024/01/24 07:04:56;;;;;;;20.42;3.10;;;;;;;10.32;86.58;101655.19;5003077;28;20040;-92
2024/01/24 07:07:21;;;;;;;14.77;2.85;;;;;;;10.30;86.90;101651.72;5001347;28;20026;-92
2024/01/24 07:09:47;;;;;;;20.77;3.45;;;;;;;10.22;86.21;101644.00;5000609;28;20538;-91
2024/01/24 07:12:13;;;;;;;26.20;3.80;;;;;;;10.23;85.19;101660.50;4999145;28;20061;-92
2024/01/24 07:14:39;;;;;;;17.25;2.78;;;;;;;10.18;85.59;101661.41;5003451;28;20091;-90
2024/01/24 07:17:05;;;;;;;20.75;3.15;;;;;;;10.13;85.43;101672.72;5001901;28;20061;-92
2024/01/24 07:19:33;;;;;;;21.52;3.83;;;;;;;10.07;85.25;101690.97;5001896;28;20021;-92
2024/01/24 07:21:58;;;;;;;22.90;3.47;;;;;;;10.03;85.75;101669.38;5000324;28;20104;-92
2024/01/24 07:24:23;;;;;;;22.48;3.55;;;;;;;9.97;85.08;101679.81;5005979;28;20053;-93
2024/01/24 07:26:49;;;;;;;17.30;2.83;;;;;;;9.95;86.22;101681.56;4970515;28;20107;-92
2024/01/24 07:29:15;;;;;;;23.70;3.67;;;;;;;9.90;85.71;101675.56;4972317;28;20097;-93
2024/01/24 07:31:40;;;;;;;17.77;3.42;;;;;;;9.84;85.48;101666.06;4990284;28;20030;-92
2024/01/24 07:34:06;;;;;;;24.88;3.65;;;;;;;9.83;86.39;101628.81;4974687;28;20034;-92
2024/01/24 07:36:31;;;;;;;16.42;2.45;;;;;;;9.82;85.93;101692.06;4980624;28;20027;-91
2024/01/24 07:38:57;;;;;;;26.25;3.42;;;;;;;9.83;85.92;101700.72;4963122;28;20084;-91
2024/01/24 07:41:23;;;;;;;16.30;3.10;;;;;;;9.75;86.57;101700.78;4980155;28;20031;-92
2024/01/24 07:43:49;;;;;;;23.35;3.45;;;;;;;9.74;86.30;101699.06;4960408;28;20042;-92
2024/01/24 07:46:14;;;;;;;23.60;3.60;;;;;;;9.69;86.08;101712.09;4975934;28;20022;-93
2024/01/24 07:48:39;;;;;;;23.13;3.28;;;;;;;9.68;86.33;101709.53;4972685;28;20101;-92
2024/01/24 07:51:05;;;;;;;18.98;3.20;;;;;;;9.64;85.68;101713.00;4972915;28;20022;-92
2024/01/24 07:53:31;;;;;;;18.95;3.20;;;;;;;9.65;85.54;101728.56;4957930;28;20492;-91
2024/01/24 07:55:56;;;;;;;21.77;3.45;;;;;;;9.61;85.51;101731.22;4976123;28;20026;-91
2024/01/24 07:58:22;;;;;;;22.17;3.40;;;;;;;9.59;85.11;101730.38;4963010;28;20026;-93
2024/01/24 08:00:48;;;;;;;20.35;3.55;;;;;;;9.63;85.10;101732.06;4978510;28;20030;-92
2024/01/24 08:03:13;;;;;;;13.85;3.10;;;;;;;9.60;85.23;101737.28;4957451;28;20093;-91
2024/01/24 08:05:39;;;;;;;21.80;3.35;;;;;;;9.54;84.29;101739.06;4960882;28;20027;-92
2024/01/24 08:08:04;;;;;;;18.58;2.92;;;;;;;9.56;84.43;101737.31;4958333;28;20404;-91
2024/01/24 08:10:29;;;;;;;20.83;3.47;;;;;;;9.50;83.33;101732.16;4976615;28;20041;-92
2024/01/24 08:12:59;;;;;;;21.73;3.67;;;;;;;9.46;83.51;101735.66;4968267;28;20034;-93
2024/01/24 08:15:25;;;;;;;22.27;3.38;;;;;;;9.44;83.42;101750.38;4982460;28;20023;-92
2024/01/24 08:17:54;;;;;;;18.40;3.05;;;;;;;9.43;82.82;101756.44;4979459;28;20530;-92
2024/01/24 08:20:21;;;;;;;14.68;2.95;;;;;;;9.41;82.52;101779.84;4972601;28;20027;-94
2024/01/24 08:22:47;;;;;;;16.15;3.00;;;;;;;9.45;82.00;101775.47;4972408;28;20823;-91
2024/01/24 08:25:15;;;;;;;20.98;3.10;;;;;;;9.43;82.25;101755.59;4973767;28;20076;-94
2024/01/24 08:27:41;;;;;;;18.88;3.13;;;;;;;9.45;82.78;101774.63;4982759;28;20725;-92
2024/01/24 08:30:06;;;;;;;20.33;3.42;;;;;;;9.42;82.12;101780.69;4998851;28;20030;-95
2024/01/24 08:32:32;;;;;;;21.88;3.42;;;;;;;9.48;82.25;101790.22;5000788;28;20407;-94
2024/01/24 08:34:57;;;;;;;18.13;3.30;;;;;;;9.44;82.41;101794.53;5005499;28;20032;-92
2024/01/24 08:37:22;;;;;;;19.95;2.92;;;;;;;9.46;82.54;101782.41;5005637;28;20395;-92
2024/01/24 08:39:50;;;;;;;19.60;3.05;;;;;;;9.44;82.78;101804.94;4991791;28;20049;-92
2024/01/24 08:42:15;;;;;;;15.55;2.50;;;;;;;9.42;83.18;101801.47;5003308;28;20034;-92
2024/01/24 08:44:41;;;;;;;22.88;3.50;;;;;;;9.44;82.83;101810.13;5002915;28;20172;-93
2024/01/24 08:47:15;;;;;;;21.20;3.45;;;;;;;9.46;82.90;101813.56;5001749;28;20034;-93
2024/01/24 08:49:40;;;;;;;26.38;3.45;;;;;;;9.47;82.96;101830.88;4984550;28;20033;-92
2024/01/24 08:52:05;;;;;;;21.65;3.58;;;;;;;9.48;82.81;101835.22;4990961;28;20034;-93
2024/01/24 08:54:31;;;;;;;19.73;3.30;;;;;;;9.47;83.02;101836.09;5003139;28;20476;-94
2024/01/24 08:56:56;;;;;;;19.92;3.13;;;;;;;9.49;83.05;101836.06;5003633;28;20030;-93
2024/01/24 08:59:22;;;;;;;18.88;3.08;;;;;;;9.48;83.45;101837.81;5004641;28;20533;-91
2024/01/24 09:01:47;;;;;;;18.55;3.00;;;;;;;9.52;82.28;101816.16;4984614;28;20112;-91
2024/01/24 09:04:12;;;;;;;19.48;3.65;;;;;;;9.51;82.43;101819.63;5000710;28;20033;-93
2024/01/24 09:06:38;;;;;;;15.63;3.40;;;;;;;9.50;82.57;101832.59;5001512;28;20032;-90
2024/01/24 09:09:06;;;;;;;17.33;3.25;;;;;;;9.53;82.15;101867.22;4987102;28;20716;-92
2024/01/24 09:11:32;;;;;;;18.38;2.88;;;;;;;9.52;82.24;101864.63;4983035;28;20026;-92
2024/01/24 09:13:58;;;;;;;19.77;3.08;;;;;;;9.50;82.38;101882.81;5001578;28;20033;-91
2024/01/24 09:16:24;;;;;;;21.67;3.75;;;;;;;9.50;82.08;101869.84;5003259;28;20034;-90
2024/01/24 09:18:49;;;;;;;15.63;3.42;;;;;;;9.50;82.37;101841.28;4988494;28;20052;-92
2024/01/24 09:21:15;;;;;;;14.70;2.90;;;;;;;9.51;82.57;101850.78;5001368;28;20395;-94
2024/01/24 09:23:43;;;;;;;18.50;3.00;;;;;;;9.51;82.12;101861.19;5005623;28;20030;-94
2024/01/24 09:26:08;;;;;;;21.00;3.15;;;;;;;9.57;82.29;101878.47;4992309;28;20452;-91
2024/01/24 09:28:33;;;;;;;21.15;3.40;;;;;;;9.60;81.91;101882.78;4981230;28;20041;-92
2024/01/24 09:30:59;;;;;;;18.15;3.20;;;;;;;9.62;82.02;101888.81;4966516;28;20019;-93
2024/01/24 09:33:29;;;;;;;17.13;3.20;;;;;;;9.62;81.90;101887.09;4980590;28;20035;-94
2024/01/24 09:35:54;;;;;;;16.42;3.03;;;;;;;9.67;81.18;101928.66;4987785;28;20030;-91
2024/01/24 09:38:25;;;;;;;21.50;3.28;;;;;;;9.68;82.00;101932.97;4980626;28;20027;-93
2024/01/24 09:40:52;;;;;;;21.35;3.33;;;;;;;9.71;81.20;101945.97;4982796;28;20034;-91
2024/01/24 09:43:24;;;;;;;25.15;3.63;;;;;;;9.69;81.40;101937.31;4979696;28;20022;-92
2024/01/24 09:45:49;;;;;;;;;;;;;;;9.73;82.01;101952.03;4978468;28;20457;-92
2024/01/24 09:48:16;;;;;;;23.20;4.18;;;;;;;9.71;79.50;101958.97;4976700;28;19921;-91
2024/01/24 09:50:44;;;;;;;18.88;2.97;;;;;;;9.69;80.74;101937.31;4982927;28;20321;-93
2024/01/24 09:53:20;;;;;;;19.75;2.95;;;;;;;9.67;80.55;101947.69;4966432;28;20046;-93
2024/01/24 09:55:48;;;;;;;16.35;3.17;;;;;;;9.65;80.95;101943.38;4961302;28;20057;-92
2024/01/24 09:58:14;;;;;;;18.30;2.85;;;;;;;9.62;81.02;101943.38;4983513;28;20041;-92
2024/01/24 10:00:47;;;;;;;17.00;2.85;;;;;;;9.61;80.59;101941.66;4964603;28;20030;-94
2024/01/24 10:03:13;;;;;;;18.40;3.15;;;;;;;9.59;81.06;101951.19;4975842;28;20058;-94
2024/01/24 10:05:40;;;;;;;17.88;2.92;;;;;;;9.62;81.16;101965.06;4972676;28;20042;-92
2024/01/24 10:08:06;;;;;;;18.27;3.05;;;;;;;9.64;81.30;101972.84;4975826;28;20050;-92
2024/01/24 10:10:31;;;;;;;17.17;3.28;;;;;;;9.67;80.72;101989.25;4978534;28;20054;-91
2024/01/24 10:12:57;;;;;;;16.85;2.90;;;;;;;9.69;80.47;101982.34;4979603;28;20399;-93
2024/01/24 10:15:24;;;;;;;17.45;3.20;;;;;;;9.73;80.58;101983.22;4979914;28;20131;-91
2024/01/24 10:17:49;;;;;;;19.00;2.92;;;;;;;9.76;80.38;101988.38;4965945;28;20031;-93
2024/01/24 10:20:17;;;;;;;20.20;3.25;;;;;;;9.83;80.44;101995.28;4980603;28;20066;-93
2024/01/24 10:22:44;;;;;;;19.13;3.40;;;;;;;9.92;79.63;102001.31;4963691;28;20061;-95
2024/01/24 10:25:10;;;;;;;21.10;3.10;;;;;;;9.91;79.96;102007.38;4966849;28;20045;-94
2024/01/24 10:27:44;;;;;;;18.20;3.03;;;;;;;9.93;79.98;102001.31;4980217;28;20035;-94
2024/01/24 10:30:11;;;;;;;19.63;3.38;;;;;;;9.96;78.90;102011.69;4979065;28;20027;-92
2024/01/24 10:32:37;;;;;;;17.65;3.15;;;;;;;10.02;78.82;102000.41;4972194;28;20078;-91
2024/01/24 10:35:09;;;;;;;17.30;2.88;;;;;;;10.05;78.70;102009.91;4968031;28;20069;-92
2024/01/24 10:37:34;;;;;;;17.75;2.97;;;;;;;10.08;78.32;101995.16;4955030;28;20027;-94
2024/01/24 10:40:06;;;;;;;18.45;3.28;;;;;;;10.11;78.72;102020.31;4983325;28;20092;-92
2024/01/24 10:42:39;;;;;;;17.55;3.00;;;;;;;10.13;78.59;102045.41;4987005;28;20699;-91
2024/01/24 10:45:06;;;;;;;20.88;3.67;;;;;;;10.16;77.99;102035.00;4975805;28;20413;-94
2024/01/24 10:47:33;;;;;;;14.95;2.30;;;;;;;10.18;78.99;102037.59;4994837;28;20038;-92
2024/01/24 10:50:21;;;;;;;16.88;2.85;;;;;;;10.18;78.06;102021.97;4976508;28;20014;-94
2024/01/24 10:53:01;;;;;;;13.90;2.78;;;;;;;10.21;77.68;102040.19;4949421;28;20057;-94
2024/01/24 10:55:26;;;;;;;17.38;3.13;;;;;;;10.22;78.14;102041.06;4983181;28;20034;-89
2024/01/24 10:57:52;;;;;;;21.38;3.05;;;;;;;10.21;76.45;102044.53;4974918;28;20113;-90
2024/01/24 11:00:19;;;;;;;19.27;3.08;;;;;;;10.16;77.76;102055.81;4983906;28;20027;-91
2024/01/24 11:02:44;;;;;;;16.00;2.58;;;;;;;10.17;76.07;102056.66;4958937;28;20026;-90
2024/01/24 11:05:22;;;;;;;15.90;2.85;;;;;;;10.14;77.63;102052.34;4961787;28;20019;-90
2024/01/24 11:08:26;;;;;;;17.42;3.33;;;;;;;10.15;78.21;102053.22;4965054;28;20106;-93
2024/01/24 11:11:07;;;;;;;17.58;3.10;;;;;;;10.16;77.80;102055.81;4961361;28;20091;-94
2024/01/24 11:13:54;;;;;;;17.17;3.17;;;;;;;10.16;77.37;102074.00;4995555;28;20401;-94
2024/01/24 11:16:25;;;;;;;18.95;2.88;;;;;;;10.13;77.50;102061.00;4983283;28;20030;-92